createdAt,value
2017-09-02T00:00:05.410Z,19.90
2017-09-02T00:02:32.541Z,19.90
2017-09-02T00:04:59.673Z,19.90
2017-09-02T00:07:26.819Z,19.90
2017-09-02T00:09:54.002Z,19.90
2017-09-02T00:12:21.141Z,19.90
2017-09-02T00:14:48.305Z,19.90
2017-09-02T00:17:15.443Z,19.90
2017-09-02T00:19:43.350Z,19.90
2017-09-02T00:22:10.505Z,19.90
2017-09-02T00:24:37.643Z,19.90
2017-09-02T00:27:04.782Z,19.90
2017-09-02T00:29:31.921Z,19.90
2017-09-02T00:31:59.069Z,19.90
2017-09-02T00:34:26.209Z,19.90
2017-09-02T00:36:53.343Z,19.90
2017-09-02T00:39:20.483Z,19.90
2017-09-02T00:41:47.632Z,19.90
2017-09-02T00:44:14.817Z,19.90
2017-09-02T00:46:41.967Z,19.90
2017-09-02T00:49:09.115Z,19.90
2017-09-02T00:51:36.265Z,19.90
2017-09-02T00:54:03.415Z,19.90
2017-09-02T00:56:30.551Z,19.90
2017-09-02T00:58:57.691Z,19.90
2017-09-02T01:01:24.895Z,19.90
2017-09-02T01:03:52.039Z,19.90
2017-09-02T01:06:19.945Z,19.90
2017-09-02T01:08:47.086Z,19.80
2017-09-02T01:11:14.228Z,19.90
2017-09-02T01:13:41.405Z,19.90
2017-09-02T01:16:08.548Z,19.90
2017-09-02T01:18:35.681Z,19.90
2017-09-02T01:21:02.825Z,19.90
2017-09-02T01:23:30.000Z,19.90
2017-09-02T01:25:57.135Z,19.90
2017-09-02T01:28:24.274Z,19.90
2017-09-02T01:30:52.177Z,19.80
2017-09-02T01:33:19.350Z,19.80
2017-09-02T01:35:46.497Z,19.90
2017-09-02T01:38:13.639Z,19.80
2017-09-02T01:40:40.773Z,19.80
2017-09-02T01:43:07.913Z,19.80
2017-09-02T01:45:35.101Z,19.80
2017-09-02T01:48:02.239Z,19.90
2017-09-02T01:50:29.388Z,19.80
2017-09-02T01:52:56.529Z,19.80
2017-09-02T01:55:23.667Z,19.80
2017-09-02T01:57:50.814Z,19.80
2017-09-02T02:00:17.957Z,19.80
2017-09-02T02:02:45.097Z,19.80
2017-09-02T02:05:12.266Z,19.80
2017-09-02T02:07:39.401Z,19.80
2017-09-02T02:10:07.338Z,19.80
2017-09-02T02:12:34.478Z,19.80
2017-09-02T02:15:01.647Z,19.80
2017-09-02T02:17:28.862Z,19.80
2017-09-02T02:19:55.997Z,19.80
2017-09-02T02:22:23.133Z,19.80
2017-09-02T02:24:50.305Z,19.80
2017-09-02T02:27:17.442Z,19.80
2017-09-02T02:29:44.618Z,19.80
2017-09-02T02:32:12.530Z,19.80
2017-09-02T02:34:39.681Z,19.80
2017-09-02T02:37:06.817Z,19.80
2017-09-02T02:39:33.958Z,19.80
2017-09-02T02:42:01.131Z,19.80
2017-09-02T02:44:28.265Z,19.80
2017-09-02T02:46:55.622Z,19.80
2017-09-02T02:49:22.762Z,19.80
2017-09-02T02:51:49.915Z,19.80
2017-09-02T02:54:17.117Z,19.80
2017-09-02T02:56:45.023Z,19.80
2017-09-02T02:59:12.191Z,19.80
2017-09-02T03:01:39.339Z,19.80
2017-09-02T03:04:06.509Z,19.80
2017-09-02T03:06:33.642Z,19.80
2017-09-02T03:09:00.829Z,19.80
2017-09-02T03:11:27.962Z,19.80
2017-09-02T03:13:55.105Z,19.80
2017-09-02T03:16:22.245Z,19.80
2017-09-02T03:18:49.394Z,19.80
2017-09-02T03:21:16.566Z,19.80
2017-09-02T03:23:43.709Z,19.80
2017-09-02T03:26:10.873Z,19.80
2017-09-02T03:28:38.013Z,19.80
2017-09-02T03:31:05.191Z,19.80
2017-09-02T03:33:32.326Z,19.80
2017-09-02T03:35:59.502Z,19.80
2017-09-02T03:38:26.635Z,19.80
2017-09-02T03:40:53.813Z,19.80
2017-09-02T03:43:20.953Z,19.80
2017-09-02T03:45:48.125Z,19.80
2017-09-02T03:48:15.270Z,19.80
2017-09-02T03:50:42.454Z,19.80
2017-09-02T03:53:09.595Z,19.80
2017-09-02T03:55:36.729Z,19.80
2017-09-02T03:58:03.870Z,19.80
2017-09-02T04:00:31.006Z,19.80
2017-09-02T04:02:58.958Z,19.90
2017-09-02T04:05:26.135Z,19.90
2017-09-02T04:07:53.320Z,20.00
2017-09-02T04:10:20.460Z,20.10
2017-09-02T04:12:47.590Z,20.20
2017-09-02T04:15:14.725Z,20.30
2017-09-02T04:17:42.635Z,20.40
2017-09-02T04:20:09.810Z,20.40
2017-09-02T04:22:36.942Z,20.40
2017-09-02T04:25:04.132Z,20.40
2017-09-02T04:27:31.283Z,20.40
2017-09-02T04:29:58.417Z,20.50
2017-09-02T04:32:25.555Z,20.40
2017-09-02T04:34:52.737Z,20.50
2017-09-02T04:37:19.874Z,20.40
2017-09-02T04:39:47.049Z,20.50
2017-09-02T04:42:14.208Z,20.40
2017-09-02T04:44:41.346Z,20.50
2017-09-02T04:47:08.491Z,20.50
2017-09-02T04:49:35.655Z,20.40
2017-09-02T04:52:03.565Z,20.40
2017-09-02T04:54:30.742Z,20.40
2017-09-02T04:56:57.877Z,20.40
2017-09-02T04:59:25.022Z,20.40
2017-09-02T05:01:52.193Z,20.40
2017-09-02T05:04:19.334Z,20.40
2017-09-02T05:06:46.515Z,20.50
2017-09-02T05:09:13.658Z,20.40
2017-09-02T05:11:40.797Z,20.40
2017-09-02T05:14:07.971Z,20.40
2017-09-02T05:16:35.130Z,20.40
2017-09-02T05:19:02.386Z,20.40
2017-09-02T05:21:29.520Z,20.40
2017-09-02T05:23:56.669Z,20.40
2017-09-02T05:26:23.809Z,20.40
2017-09-02T05:28:50.950Z,20.40
2017-09-02T05:31:18.147Z,20.40
2017-09-02T05:33:45.296Z,20.00
2017-09-02T05:36:13.210Z,19.00
2017-09-02T05:38:40.363Z,19.00
2017-09-02T05:41:07.519Z,18.70
2017-09-02T05:43:34.715Z,18.60
2017-09-02T05:46:01.855Z,18.50
2017-09-02T05:48:29.065Z,18.40
2017-09-02T05:50:56.241Z,18.30
2017-09-02T05:53:24.402Z,18.30
2017-09-02T05:55:51.651Z,18.30
2017-09-02T05:58:18.798Z,18.30
2017-09-02T06:00:45.978Z,18.30
2017-09-02T06:03:13.142Z,18.40
2017-09-02T06:05:40.289Z,18.40
2017-09-02T06:08:08.432Z,18.30
2017-09-02T06:10:35.578Z,18.40
2017-09-02T06:13:02.725Z,18.30
2017-09-02T06:15:29.864Z,18.30
2017-09-02T06:17:57.005Z,18.20
2017-09-02T06:20:24.196Z,18.20
2017-09-02T06:22:51.338Z,18.30
2017-09-02T06:25:18.517Z,18.20
2017-09-02T06:27:45.652Z,18.30
2017-09-02T06:30:12.789Z,18.30
2017-09-02T06:32:39.977Z,18.30
2017-09-02T06:35:07.197Z,18.30
2017-09-02T06:37:34.382Z,18.40
2017-09-02T06:40:01.535Z,18.30
2017-09-02T06:42:28.739Z,18.30
2017-09-02T06:44:55.892Z,18.30
2017-09-02T06:47:23.043Z,18.30
2017-09-02T06:49:50.187Z,18.40
2017-09-02T06:52:17.323Z,18.40
2017-09-02T06:54:44.509Z,18.40
2017-09-02T06:57:11.652Z,18.40
2017-09-02T06:59:38.792Z,18.30
2017-09-02T07:02:05.930Z,18.40
2017-09-02T07:04:33.102Z,18.50
2017-09-02T07:07:00.273Z,18.50
2017-09-02T07:09:27.446Z,18.50
2017-09-02T07:11:54.613Z,18.50
2017-09-02T07:14:21.755Z,18.50
2017-09-02T07:16:48.945Z,18.60
2017-09-02T07:19:16.079Z,18.60
2017-09-02T07:21:43.217Z,18.60
2017-09-02T07:24:10.362Z,18.60
2017-09-02T07:26:37.578Z,18.70
2017-09-02T07:29:05.151Z,18.70
2017-09-02T07:31:32.334Z,18.70
2017-09-02T07:33:59.469Z,18.80
2017-09-02T07:36:26.638Z,18.80
2017-09-02T07:38:53.788Z,18.70
2017-09-02T07:41:20.953Z,18.70
2017-09-02T07:43:48.890Z,18.70
2017-09-02T07:46:16.069Z,18.70
2017-09-02T07:48:43.215Z,18.70
2017-09-02T07:51:10.363Z,18.70
2017-09-02T07:53:37.575Z,18.70
2017-09-02T07:56:04.716Z,18.60
2017-09-02T07:58:31.891Z,18.70
2017-09-02T08:00:59.025Z,18.70
2017-09-02T08:03:26.179Z,18.70
2017-09-02T08:05:53.321Z,18.70
2017-09-02T08:08:20.462Z,18.80
2017-09-02T08:10:47.606Z,18.80
2017-09-02T08:13:14.746Z,18.80
2017-09-02T08:15:41.885Z,18.80
2017-09-02T08:18:09.023Z,18.80
2017-09-02T08:20:36.153Z,18.80
2017-09-02T08:23:03.296Z,18.80
2017-09-02T08:25:30.474Z,18.80
2017-09-02T08:27:57.607Z,18.80
2017-09-02T08:30:25.514Z,18.80
2017-09-02T08:32:52.652Z,18.80
2017-09-02T08:35:19.795Z,18.80
2017-09-02T08:37:46.930Z,18.80
2017-09-02T08:40:14.147Z,18.90
2017-09-02T08:42:41.290Z,18.90
2017-09-02T08:45:08.469Z,18.80
2017-09-02T08:47:35.610Z,18.80
2017-09-02T08:50:02.753Z,18.80
2017-09-02T08:52:29.925Z,18.80
2017-09-02T08:54:57.158Z,18.90
2017-09-02T08:57:24.334Z,18.90
2017-09-02T08:59:51.474Z,18.90
2017-09-02T09:02:18.647Z,18.90
2017-09-02T09:04:45.814Z,18.90
2017-09-02T09:07:12.992Z,19.00
2017-09-02T09:09:40.213Z,19.10
2017-09-02T09:12:07.354Z,19.10
2017-09-02T09:14:34.496Z,19.20
2017-09-02T09:19:35.310Z,19.10
2017-09-02T09:22:02.485Z,19.00
2017-09-02T09:24:29.627Z,19.10
2017-09-02T09:26:56.779Z,19.00
2017-09-02T09:29:23.922Z,19.00
2017-09-02T09:31:51.059Z,19.00
2017-09-02T09:34:18.266Z,19.10
2017-09-02T09:36:45.401Z,19.10
2017-09-02T09:39:12.586Z,19.20
2017-09-02T09:41:40.541Z,19.20
2017-09-02T09:44:07.678Z,19.20
2017-09-02T09:46:35.236Z,19.20
2017-09-02T09:49:02.374Z,19.30
2017-09-02T09:51:29.559Z,19.20
2017-09-02T09:53:56.704Z,19.30
2017-09-02T09:56:23.842Z,19.30
2017-09-02T09:58:50.982Z,19.40
2017-09-02T10:01:18.127Z,19.50
2017-09-02T10:03:45.263Z,19.60
2017-09-02T10:06:12.407Z,19.70
2017-09-02T10:08:39.589Z,19.70
2017-09-02T10:11:06.738Z,19.70
2017-09-02T10:13:34.086Z,19.70
2017-09-02T10:16:01.230Z,19.60
2017-09-02T10:18:29.416Z,19.60
2017-09-02T10:20:56.562Z,19.50
2017-09-02T10:23:23.721Z,19.50
2017-09-02T10:25:50.871Z,19.60
2017-09-02T10:28:18.050Z,19.60
2017-09-02T10:30:45.223Z,19.50
2017-09-02T10:33:13.131Z,19.50
2017-09-02T10:35:40.277Z,19.50
2017-09-02T10:38:07.419Z,19.40
2017-09-02T10:40:34.564Z,19.40
2017-09-02T10:43:01.749Z,19.50
2017-09-02T10:45:28.880Z,19.40
2017-09-02T10:47:56.047Z,19.40
2017-09-02T10:50:23.705Z,19.40
2017-09-02T10:52:50.890Z,19.60
2017-09-02T10:55:18.030Z,19.70
2017-09-02T10:57:45.168Z,19.70
2017-09-02T11:00:12.298Z,19.60
2017-09-02T11:02:39.439Z,19.50
2017-09-02T11:05:06.617Z,19.50
2017-09-02T11:07:33.749Z,19.50
2017-09-02T11:10:00.922Z,19.60
2017-09-02T11:12:28.059Z,19.70
2017-09-02T11:14:55.232Z,19.70
2017-09-02T11:17:22.384Z,19.80
2017-09-02T11:19:49.561Z,19.80
2017-09-02T11:22:16.700Z,19.70
2017-09-02T11:24:43.829Z,19.80
2017-09-02T11:27:10.968Z,19.80
2017-09-02T11:29:38.133Z,19.80
2017-09-02T11:32:05.270Z,19.80
2017-09-02T11:34:32.442Z,19.80
2017-09-02T11:36:59.622Z,19.80
2017-09-02T11:39:26.775Z,19.80
2017-09-02T11:41:54.689Z,19.90
2017-09-02T11:44:21.828Z,19.80
2017-09-02T11:46:48.966Z,19.90
2017-09-02T11:49:16.102Z,19.80
2017-09-02T11:51:43.239Z,19.80
2017-09-02T11:54:10.369Z,19.80
2017-09-02T11:56:37.520Z,19.70
2017-09-02T11:59:04.683Z,19.80
2017-09-02T12:01:31.874Z,19.80
2017-09-02T12:03:59.006Z,19.80
2017-09-02T12:06:26.140Z,19.80
2017-09-02T12:08:53.280Z,19.80
